sensor_id;sensor_type;location;lat;lon;timestamp;P1;durP1;ratioP1;P2;durP2;ratioP2
45254;SDS011;30989;52.078;21.014;2023-03-01T00:01:17;54.78;;;23.45;;
45254;SDS011;30989;52.078;21.014;2023-03-01T00:03:45;59.10;;;24.60;;
45254;SDS011;30989;52.078;21.014;2023-03-01T00:06:11;74.18;;;25.35;;
45254;SDS011;30989;52.078;21.014;2023-03-01T00:08:36;62.70;;;24.13;;
45254;SDS011;30989;52.078;21.014;2023-03-01T00:11:06;61.45;;;24.35;;
45254;SDS011;30989;52.078;21.014;2023-03-01T00:13:35;62.33;;;24.73;;
45254;SDS011;30989;52.078;21.014;2023-03-01T00:16:05;66.68;;;26.58;;
45254;SDS011;30989;52.078;21.014;2023-03-01T00:18:31;63.50;;;25.60;;
45254;SDS011;30989;52.078;21.014;2023-03-01T00:20:58;58.33;;;24.48;;
45254;SDS011;30989;52.078;21.014;2023-03-01T00:23:24;53.50;;;21.60;;
45254;SDS011;30989;52.078;21.014;2023-03-01T00:25:50;63.45;;;25.50;;
45254;SDS011;30989;52.078;21.014;2023-03-01T00:28:16;53.42;;;21.13;;
45254;SDS011;30989;52.078;21.014;2023-03-01T00:30:41;62.75;;;24.02;;
45254;SDS011;30989;52.078;21.014;2023-03-01T00:33:07;63.65;;;23.70;;
45254;SDS011;30989;52.078;21.014;2023-03-01T00:35:33;58.30;;;21.13;;
45254;SDS011;30989;52.078;21.014;2023-03-01T00:37:59;59.33;;;21.73;;
45254;SDS011;30989;52.078;21.014;2023-03-01T00:40:25;57.63;;;21.85;;
45254;SDS011;30989;52.078;21.014;2023-03-01T00:42:52;55.97;;;21.75;;
45254;SDS011;30989;52.078;21.014;2023-03-01T00:45:17;45.97;;;19.52;;
45254;SDS011;30989;52.078;21.014;2023-03-01T00:47:43;59.28;;;23.60;;
45254;SDS011;30989;52.078;21.014;2023-03-01T00:50:08;59.38;;;21.27;;
45254;SDS011;30989;52.078;21.014;2023-03-01T00:52:35;63.45;;;22.88;;
45254;SDS011;30989;52.078;21.014;2023-03-01T00:55:01;58.15;;;21.98;;
45254;SDS011;30989;52.078;21.014;2023-03-01T00:57:27;56.35;;;22.48;;
45254;SDS011;30989;52.078;21.014;2023-03-01T00:59:52;55.53;;;22.42;;
45254;SDS011;30989;52.078;21.014;2023-03-01T01:02:18;54.58;;;20.67;;
45254;SDS011;30989;52.078;21.014;2023-03-01T01:04:44;69.35;;;21.58;;
45254;SDS011;30989;52.078;21.014;2023-03-01T01:07:10;54.45;;;22.75;;
45254;SDS011;30989;52.078;21.014;2023-03-01T01:09:36;54.65;;;21.63;;
45254;SDS011;30989;52.078;21.014;2023-03-01T01:12:03;54.20;;;20.70;;
45254;SDS011;30989;52.078;21.014;2023-03-01T01:14:29;53.72;;;20.27;;
45254;SDS011;30989;52.078;21.014;2023-03-01T01:16:55;54.45;;;21.17;;
45254;SDS011;30989;52.078;21.014;2023-03-01T01:19:22;51.40;;;21.35;;
45254;SDS011;30989;52.078;21.014;2023-03-01T01:21:48;60.63;;;20.50;;
45254;SDS011;30989;52.078;21.014;2023-03-01T01:24:14;63.33;;;21.90;;
45254;SDS011;30989;52.078;21.014;2023-03-01T01:26:40;52.15;;;21.75;;
45254;SDS011;30989;52.078;21.014;2023-03-01T01:29:06;57.80;;;21.30;;
45254;SDS011;30989;52.078;21.014;2023-03-01T01:31:33;61.30;;;20.52;;
45254;SDS011;30989;52.078;21.014;2023-03-01T01:34:00;58.55;;;22.88;;
45254;SDS011;30989;52.078;21.014;2023-03-01T01:36:27;52.78;;;22.40;;
45254;SDS011;30989;52.078;21.014;2023-03-01T01:38:53;57.72;;;23.38;;
45254;SDS011;30989;52.078;21.014;2023-03-01T01:41:19;55.30;;;21.23;;
45254;SDS011;30989;52.078;21.014;2023-03-01T01:43:47;61.22;;;22.40;;
45254;SDS011;30989;52.078;21.014;2023-03-01T01:46:25;56.15;;;20.30;;
45254;SDS011;30989;52.078;21.014;2023-03-01T01:49:07;52.17;;;20.05;;
45254;SDS011;30989;52.078;21.014;2023-03-01T01:51:43;38.73;;;14.13;;
45254;SDS011;30989;52.078;21.014;2023-03-01T01:54:20;47.95;;;19.48;;
45254;SDS011;30989;52.078;21.014;2023-03-01T01:56:58;46.83;;;19.00;;
45254;SDS011;30989;52.078;21.014;2023-03-01T01:59:27;48.40;;;18.65;;
45254;SDS011;30989;52.078;21.014;2023-03-01T02:01:56;50.83;;;18.67;;
45254;SDS011;30989;52.078;21.014;2023-03-01T02:04:26;55.92;;;21.15;;
45254;SDS011;30989;52.078;21.014;2023-03-01T02:06:55;54.25;;;22.52;;
45254;SDS011;30989;52.078;21.014;2023-03-01T02:09:28;55.65;;;20.50;;
45254;SDS011;30989;52.078;21.014;2023-03-01T02:11:56;56.22;;;20.23;;
45254;SDS011;30989;52.078;21.014;2023-03-01T02:14:22;53.67;;;19.27;;
45254;SDS011;30989;52.078;21.014;2023-03-01T02:16:48;55.30;;;21.10;;
45254;SDS011;30989;52.078;21.014;2023-03-01T02:20:03;51.53;;;19.33;;
45254;SDS011;30989;52.078;21.014;2023-03-01T02:30:20;46.97;;;19.45;;
45254;SDS011;30989;52.078;21.014;2023-03-01T02:32:47;53.80;;;20.80;;
45254;SDS011;30989;52.078;21.014;2023-03-01T02:35:14;55.22;;;20.13;;
45254;SDS011;30989;52.078;21.014;2023-03-01T02:37:42;51.78;;;19.08;;
45254;SDS011;30989;52.078;21.014;2023-03-01T02:40:13;59.08;;;20.55;;
45254;SDS011;30989;52.078;21.014;2023-03-01T02:42:47;43.83;;;16.77;;
45254;SDS011;30989;52.078;21.014;2023-03-01T02:45:16;49.10;;;19.60;;
45254;SDS011;30989;52.078;21.014;2023-03-01T02:47:41;56.85;;;20.20;;
45254;SDS011;30989;52.078;21.014;2023-03-01T02:50:15;53.05;;;19.88;;
45254;SDS011;30989;52.078;21.014;2023-03-01T02:53:06;54.90;;;19.67;;
45254;SDS011;30989;52.078;21.014;2023-03-01T02:55:38;54.50;;;20.13;;
45254;SDS011;30989;52.078;21.014;2023-03-01T02:58:04;47.80;;;20.73;;
45254;SDS011;30989;52.078;21.014;2023-03-01T03:00:33;54.92;;;18.98;;
45254;SDS011;30989;52.078;21.014;2023-03-01T03:03:05;53.72;;;19.05;;
45254;SDS011;30989;52.078;21.014;2023-03-01T03:05:32;57.17;;;19.45;;
45254;SDS011;30989;52.078;21.014;2023-03-01T03:07:59;48.38;;;18.65;;
45254;SDS011;30989;52.078;21.014;2023-03-01T03:10:30;50.67;;;19.35;;
45254;SDS011;30989;52.078;21.014;2023-03-01T03:13:02;53.17;;;19.90;;
45254;SDS011;30989;52.078;21.014;2023-03-01T03:15:30;55.50;;;18.83;;
45254;SDS011;30989;52.078;21.014;2023-03-01T03:17:57;50.25;;;18.52;;
45254;SDS011;30989;52.078;21.014;2023-03-01T03:20:24;62.85;;;20.13;;
45254;SDS011;30989;52.078;21.014;2023-03-01T03:22:53;49.65;;;19.00;;
45254;SDS011;30989;52.078;21.014;2023-03-01T03:25:20;59.47;;;20.52;;
45254;SDS011;30989;52.078;21.014;2023-03-01T03:27:47;49.13;;;18.63;;
45254;SDS011;30989;52.078;21.014;2023-03-01T03:30:15;53.03;;;20.02;;
45254;SDS011;30989;52.078;21.014;2023-03-01T03:32:43;58.53;;;22.02;;
45254;SDS011;30989;52.078;21.014;2023-03-01T03:35:18;50.00;;;19.20;;
45254;SDS011;30989;52.078;21.014;2023-03-01T03:38:08;51.85;;;20.98;;
45254;SDS011;30989;52.078;21.014;2023-03-01T03:40:42;56.97;;;21.17;;
45254;SDS011;30989;52.078;21.014;2023-03-01T03:43:11;57.17;;;20.27;;
45254;SDS011;30989;52.078;21.014;2023-03-01T03:45:41;39.83;;;15.83;;
45254;SDS011;30989;52.078;21.014;2023-03-01T03:48:09;55.20;;;21.27;;
45254;SDS011;30989;52.078;21.014;2023-03-01T03:50:35;62.05;;;22.55;;
45254;SDS011;30989;52.078;21.014;2023-03-01T03:53:01;55.45;;;20.35;;
45254;SDS011;30989;52.078;21.014;2023-03-01T03:55:28;45.50;;;20.02;;
45254;SDS011;30989;52.078;21.014;2023-03-01T03:57:56;47.70;;;19.65;;
45254;SDS011;30989;52.078;21.014;2023-03-01T04:00:26;56.05;;;20.20;;
45254;SDS011;30989;52.078;21.014;2023-03-01T04:02:51;56.20;;;19.75;;
45254;SDS011;30989;52.078;21.014;2023-03-01T04:05:21;49.80;;;19.63;;
45254;SDS011;30989;52.078;21.014;2023-03-01T04:07:47;50.38;;;18.33;;
45254;SDS011;30989;52.078;21.014;2023-03-01T04:10:16;46.22;;;18.95;;
45254;SDS011;30989;52.078;21.014;2023-03-01T04:12:43;56.78;;;20.00;;
45254;SDS011;30989;52.078;21.014;2023-03-01T04:15:09;48.60;;;19.05;;
45254;SDS011;30989;52.078;21.014;2023-03-01T04:17:42;48.55;;;19.80;;
45254;SDS011;30989;52.078;21.014;2023-03-01T04:20:09;45.80;;;19.23;;
45254;SDS011;30989;52.078;21.014;2023-03-01T04:22:37;54.58;;;20.45;;
45254;SDS011;30989;52.078;21.014;2023-03-01T04:25:04;49.72;;;19.30;;
45254;SDS011;30989;52.078;21.014;2023-03-01T04:27:34;49.00;;;19.77;;
45254;SDS011;30989;52.078;21.014;2023-03-01T04:30:01;52.05;;;19.83;;
45254;SDS011;30989;52.078;21.014;2023-03-01T04:32:27;49.55;;;18.38;;
45254;SDS011;30989;52.078;21.014;2023-03-01T04:34:53;45.03;;;18.77;;
45254;SDS011;30989;52.078;21.014;2023-03-01T04:37:18;49.65;;;20.05;;
45254;SDS011;30989;52.078;21.014;2023-03-01T04:39:44;50.50;;;18.55;;
45254;SDS011;30989;52.078;21.014;2023-03-01T04:42:13;55.05;;;19.73;;
45254;SDS011;30989;52.078;21.014;2023-03-01T04:44:39;51.63;;;18.75;;
45254;SDS011;30989;52.078;21.014;2023-03-01T04:47:04;54.03;;;20.73;;
45254;SDS011;30989;52.078;21.014;2023-03-01T04:49:30;46.78;;;18.25;;
45254;SDS011;30989;52.078;21.014;2023-03-01T04:51:56;57.47;;;20.75;;
45254;SDS011;30989;52.078;21.014;2023-03-01T04:54:23;47.80;;;17.10;;
45254;SDS011;30989;52.078;21.014;2023-03-01T04:56:49;56.92;;;20.48;;
45254;SDS011;30989;52.078;21.014;2023-03-01T04:59:14;52.08;;;18.80;;
45254;SDS011;30989;52.078;21.014;2023-03-01T05:01:39;50.15;;;19.80;;
45254;SDS011;30989;52.078;21.014;2023-03-01T05:04:07;52.70;;;20.30;;
45254;SDS011;30989;52.078;21.014;2023-03-01T05:06:37;55.15;;;19.90;;
45254;SDS011;30989;52.078;21.014;2023-03-01T05:09:03;52.50;;;19.02;;
45254;SDS011;30989;52.078;21.014;2023-03-01T05:11:28;44.92;;;16.50;;
45254;SDS011;30989;52.078;21.014;2023-03-01T05:13:58;49.17;;;17.67;;
45254;SDS011;30989;52.078;21.014;2023-03-01T05:16:24;50.10;;;17.33;;
45254;SDS011;30989;52.078;21.014;2023-03-01T05:18:49;47.10;;;18.98;;
45254;SDS011;30989;52.078;21.014;2023-03-01T05:21:18;64.78;;;21.38;;
45254;SDS011;30989;52.078;21.014;2023-03-01T05:23:43;46.55;;;17.58;;
45254;SDS011;30989;52.078;21.014;2023-03-01T05:26:09;43.22;;;17.27;;
45254;SDS011;30989;52.078;21.014;2023-03-01T05:28:35;43.67;;;17.58;;
45254;SDS011;30989;52.078;21.014;2023-03-01T05:31:00;50.33;;;19.02;;
45254;SDS011;30989;52.078;21.014;2023-03-01T05:33:26;46.03;;;17.63;;
45254;SDS011;30989;52.078;21.014;2023-03-01T05:35:52;49.72;;;18.33;;
45254;SDS011;30989;52.078;21.014;2023-03-01T05:38:18;51.65;;;17.73;;
45254;SDS011;30989;52.078;21.014;2023-03-01T05:40:45;45.92;;;17.35;;
45254;SDS011;30989;52.078;21.014;2023-03-01T05:43:13;39.47;;;17.15;;
45254;SDS011;30989;52.078;21.014;2023-03-01T05:45:40;51.13;;;17.20;;
45254;SDS011;30989;52.078;21.014;2023-03-01T05:48:06;42.22;;;13.57;;
45254;SDS011;30989;52.078;21.014;2023-03-01T05:50:38;48.38;;;17.13;;
45254;SDS011;30989;52.078;21.014;2023-03-01T05:53:17;47.00;;;17.20;;
45254;SDS011;30989;52.078;21.014;2023-03-01T05:55:46;45.78;;;18.20;;
45254;SDS011;30989;52.078;21.014;2023-03-01T05:58:16;41.22;;;16.23;;
45254;SDS011;30989;52.078;21.014;2023-03-01T06:00:44;47.28;;;18.08;;
45254;SDS011;30989;52.078;21.014;2023-03-01T06:03:11;42.13;;;16.75;;
45254;SDS011;30989;52.078;21.014;2023-03-01T06:05:38;42.75;;;17.38;;
45254;SDS011;30989;52.078;21.014;2023-03-01T06:08:05;50.17;;;18.55;;
45254;SDS011;30989;52.078;21.014;2023-03-01T06:10:30;43.28;;;18.38;;
45254;SDS011;30989;52.078;21.014;2023-03-01T06:12:56;55.63;;;18.77;;
45254;SDS011;30989;52.078;21.014;2023-03-01T06:15:22;38.95;;;15.30;;
45254;SDS011;30989;52.078;21.014;2023-03-01T06:17:48;37.97;;;17.20;;
45254;SDS011;30989;52.078;21.014;2023-03-01T06:20:18;48.45;;;18.63;;
45254;SDS011;30989;52.078;21.014;2023-03-01T06:22:45;43.28;;;16.42;;
45254;SDS011;30989;52.078;21.014;2023-03-01T06:25:12;50.08;;;17.88;;
45254;SDS011;30989;52.078;21.014;2023-03-01T06:27:39;49.92;;;18.15;;
45254;SDS011;30989;52.078;21.014;2023-03-01T06:30:05;38.92;;;16.70;;
45254;SDS011;30989;52.078;21.014;2023-03-01T06:32:32;45.55;;;18.70;;
45254;SDS011;30989;52.078;21.014;2023-03-01T06:34:58;47.00;;;17.25;;
45254;SDS011;30989;52.078;21.014;2023-03-01T06:37:24;52.25;;;19.15;;
45254;SDS011;30989;52.078;21.014;2023-03-01T06:39:50;45.30;;;18.17;;
45254;SDS011;30989;52.078;21.014;2023-03-01T06:42:16;49.80;;;17.23;;
45254;SDS011;30989;52.078;21.014;2023-03-01T06:44:41;45.58;;;17.38;;
45254;SDS011;30989;52.078;21.014;2023-03-01T06:47:07;48.70;;;17.75;;
45254;SDS011;30989;52.078;21.014;2023-03-01T06:49:32;38.03;;;15.57;;
45254;SDS011;30989;52.078;21.014;2023-03-01T06:51:58;44.58;;;16.08;;
45254;SDS011;30989;52.078;21.014;2023-03-01T06:54:23;43.67;;;15.85;;
45254;SDS011;30989;52.078;21.014;2023-03-01T06:56:49;46.47;;;17.88;;
45254;SDS011;30989;52.078;21.014;2023-03-01T06:59:15;47.38;;;17.40;;
45254;SDS011;30989;52.078;21.014;2023-03-01T07:01:41;42.35;;;16.42;;
45254;SDS011;30989;52.078;21.014;2023-03-01T07:04:07;37.65;;;15.45;;
45254;SDS011;30989;52.078;21.014;2023-03-01T07:06:32;45.28;;;18.85;;
45254;SDS011;30989;52.078;21.014;2023-03-01T07:08:58;47.33;;;18.15;;
45254;SDS011;30989;52.078;21.014;2023-03-01T07:11:24;45.35;;;17.33;;
45254;SDS011;30989;52.078;21.014;2023-03-01T07:13:49;45.88;;;18.20;;
45254;SDS011;30989;52.078;21.014;2023-03-01T07:16:14;39.08;;;16.83;;
45254;SDS011;30989;52.078;21.014;2023-03-01T07:18:40;30.67;;;13.75;;
45254;SDS011;30989;52.078;21.014;2023-03-01T07:21:06;44.33;;;17.30;;
45254;SDS011;30989;52.078;21.014;2023-03-01T07:23:37;37.58;;;15.70;;
45254;SDS011;30989;52.078;21.014;2023-03-01T07:26:02;44.63;;;18.65;;
45254;SDS011;30989;52.078;21.014;2023-03-01T07:28:28;43.67;;;17.60;;
45254;SDS011;30989;52.078;21.014;2023-03-01T07:30:54;41.25;;;16.75;;
45254;SDS011;30989;52.078;21.014;2023-03-01T07:33:20;43.85;;;17.50;;
45254;SDS011;30989;52.078;21.014;2023-03-01T07:35:45;40.55;;;16.35;;
45254;SDS011;30989;52.078;21.014;2023-03-01T07:38:11;40.97;;;17.75;;
45254;SDS011;30989;52.078;21.014;2023-03-01T07:40:36;45.22;;;16.40;;
45254;SDS011;30989;52.078;21.014;2023-03-01T07:43:01;46.20;;;18.10;;
45254;SDS011;30989;52.078;21.014;2023-03-01T07:45:27;41.65;;;17.13;;
45254;SDS011;30989;52.078;21.014;2023-03-01T07:47:54;42.45;;;16.85;;
45254;SDS011;30989;52.078;21.014;2023-03-01T07:50:21;39.22;;;16.05;;
45254;SDS011;30989;52.078;21.014;2023-03-01T07:52:48;40.90;;;16.08;;
45254;SDS011;30989;52.078;21.014;2023-03-01T07:55:14;40.67;;;15.20;;
45254;SDS011;30989;52.078;21.014;2023-03-01T07:57:41;41.03;;;14.55;;
45254;SDS011;30989;52.078;21.014;2023-03-01T08:00:07;35.00;;;16.25;;
45254;SDS011;30989;52.078;21.014;2023-03-01T08:02:39;36.70;;;15.40;;
45254;SDS011;30989;52.078;21.014;2023-03-01T08:05:07;33.60;;;13.65;;
45254;SDS011;30989;52.078;21.014;2023-03-01T08:07:34;33.20;;;13.38;;
45254;SDS011;30989;52.078;21.014;2023-03-01T08:09:59;33.22;;;13.95;;
45254;SDS011;30989;52.078;21.014;2023-03-01T08:12:25;34.15;;;12.57;;
45254;SDS011;30989;52.078;21.014;2023-03-01T08:14:52;39.63;;;13.60;;
45254;SDS011;30989;52.078;21.014;2023-03-01T08:17:18;36.10;;;12.93;;
45254;SDS011;30989;52.078;21.014;2023-03-01T08:19:43;30.33;;;12.55;;
45254;SDS011;30989;52.078;21.014;2023-03-01T08:22:09;30.15;;;11.00;;
45254;SDS011;30989;52.078;21.014;2023-03-01T08:24:34;29.08;;;12.25;;
45254;SDS011;30989;52.078;21.014;2023-03-01T08:26:59;28.63;;;11.05;;
45254;SDS011;30989;52.078;21.014;2023-03-01T08:29:26;26.33;;;10.20;;
45254;SDS011;30989;52.078;21.014;2023-03-01T08:31:51;23.55;;;9.68;;
45254;SDS011;30989;52.078;21.014;2023-03-01T08:34:17;25.38;;;11.40;;
45254;SDS011;30989;52.078;21.014;2023-03-01T08:36:43;25.42;;;10.93;;
45254;SDS011;30989;52.078;21.014;2023-03-01T08:39:11;29.00;;;11.55;;
45254;SDS011;30989;52.078;21.014;2023-03-01T08:41:39;30.08;;;12.52;;
45254;SDS011;30989;52.078;21.014;2023-03-01T08:44:05;28.33;;;11.07;;
45254;SDS011;30989;52.078;21.014;2023-03-01T08:46:32;26.30;;;11.02;;
45254;SDS011;30989;52.078;21.014;2023-03-01T08:48:59;24.80;;;11.00;;
45254;SDS011;30989;52.078;21.014;2023-03-01T08:51:25;27.38;;;10.85;;
45254;SDS011;30989;52.078;21.014;2023-03-01T08:53:51;23.73;;;10.55;;
45254;SDS011;30989;52.078;21.014;2023-03-01T08:56:17;24.38;;;9.30;;
45254;SDS011;30989;52.078;21.014;2023-03-01T08:58:47;25.75;;;10.50;;
45254;SDS011;30989;52.078;21.014;2023-03-01T09:01:15;25.13;;;10.05;;
45254;SDS011;30989;52.078;21.014;2023-03-01T09:03:43;28.35;;;10.13;;
45254;SDS011;30989;52.078;21.014;2023-03-01T09:06:09;22.55;;;10.50;;
45254;SDS011;30989;52.078;21.014;2023-03-01T09:08:39;26.08;;;10.65;;
45254;SDS011;30989;52.078;21.014;2023-03-01T09:11:06;22.55;;;10.00;;
45254;SDS011;30989;52.078;21.014;2023-03-01T09:13:33;23.25;;;10.18;;
45254;SDS011;30989;52.078;21.014;2023-03-01T09:16:01;20.92;;;9.18;;
45254;SDS011;30989;52.078;21.014;2023-03-01T09:18:27;28.92;;;11.10;;
45254;SDS011;30989;52.078;21.014;2023-03-01T09:21:00;25.85;;;10.02;;
45254;SDS011;30989;52.078;21.014;2023-03-01T09:23:32;27.88;;;9.38;;
45254;SDS011;30989;52.078;21.014;2023-03-01T09:25:59;24.63;;;10.27;;
45254;SDS011;30989;52.078;21.014;2023-03-01T09:28:25;28.00;;;11.38;;
45254;SDS011;30989;52.078;21.014;2023-03-01T09:30:50;23.33;;;9.82;;
45254;SDS011;30989;52.078;21.014;2023-03-01T09:33:16;28.58;;;10.02;;
45254;SDS011;30989;52.078;21.014;2023-03-01T09:35:41;24.80;;;10.70;;
45254;SDS011;30989;52.078;21.014;2023-03-01T09:38:11;24.35;;;9.52;;
45254;SDS011;30989;52.078;21.014;2023-03-01T09:40:41;24.00;;;9.07;;
45254;SDS011;30989;52.078;21.014;2023-03-01T09:43:11;26.02;;;10.27;;
45254;SDS011;30989;52.078;21.014;2023-03-01T09:45:45;17.05;;;8.32;;
45254;SDS011;30989;52.078;21.014;2023-03-01T09:48:16;22.80;;;8.60;;
45254;SDS011;30989;52.078;21.014;2023-03-01T09:50:44;22.40;;;9.45;;
45254;SDS011;30989;52.078;21.014;2023-03-01T09:53:15;22.02;;;9.43;;
45254;SDS011;30989;52.078;21.014;2023-03-01T09:55:43;24.27;;;9.63;;
45254;SDS011;30989;52.078;21.014;2023-03-01T10:01:25;23.02;;;11.48;;
45254;SDS011;30989;52.078;21.014;2023-03-01T10:07:02;30.13;;;12.55;;
45254;SDS011;30989;52.078;21.014;2023-03-01T10:09:39;19.75;;;9.15;;
45254;SDS011;30989;52.078;21.014;2023-03-01T10:12:26;24.73;;;10.77;;
45254;SDS011;30989;52.078;21.014;2023-03-01T10:20:52;30.70;;;10.65;;
45254;SDS011;30989;52.078;21.014;2023-03-01T10:23:24;25.55;;;10.52;;
45254;SDS011;30989;52.078;21.014;2023-03-01T10:31:13;25.30;;;10.05;;
45254;SDS011;30989;52.078;21.014;2023-03-01T10:33:43;21.45;;;9.60;;
45254;SDS011;30989;52.078;21.014;2023-03-01T10:36:08;21.10;;;9.93;;
45254;SDS011;30989;52.078;21.014;2023-03-01T10:38:48;18.70;;;8.65;;
45254;SDS011;30989;52.078;21.014;2023-03-01T10:41:19;18.27;;;7.68;;
45254;SDS011;30989;52.078;21.014;2023-03-01T10:43:47;20.67;;;8.38;;
45254;SDS011;30989;52.078;21.014;2023-03-01T10:49:52;17.63;;;8.38;;
45254;SDS011;30989;52.078;21.014;2023-03-01T10:51:47;17.27;;;8.38;;
45254;SDS011;30989;52.078;21.014;2023-03-01T10:54:19;17.88;;;7.80;;
45254;SDS011;30989;52.078;21.014;2023-03-01T10:56:46;17.88;;;8.55;;
45254;SDS011;30989;52.078;21.014;2023-03-01T11:02:03;14.95;;;7.28;;
45254;SDS011;30989;52.078;21.014;2023-03-01T11:04:33;18.63;;;8.15;;
45254;SDS011;30989;52.078;21.014;2023-03-01T11:06:59;18.55;;;7.47;;
45254;SDS011;30989;52.078;21.014;2023-03-01T11:09:25;17.20;;;7.50;;
45254;SDS011;30989;52.078;21.014;2023-03-01T11:11:57;17.48;;;8.55;;
45254;SDS011;30989;52.078;21.014;2023-03-01T11:14:37;18.42;;;8.02;;
45254;SDS011;30989;52.078;21.014;2023-03-01T11:20:29;17.80;;;8.75;;
45254;SDS011;30989;52.078;21.014;2023-03-01T11:22:38;18.20;;;8.85;;
45254;SDS011;30989;52.078;21.014;2023-03-01T11:25:19;20.52;;;9.02;;
45254;SDS011;30989;52.078;21.014;2023-03-01T11:27:49;15.40;;;8.70;;
45254;SDS011;30989;52.078;21.014;2023-03-01T11:30:22;15.65;;;8.93;;
45254;SDS011;30989;52.078;21.014;2023-03-01T11:35:55;17.35;;;8.43;;
45254;SDS011;30989;52.078;21.014;2023-03-01T11:38:27;18.60;;;8.48;;
45254;SDS011;30989;52.078;21.014;2023-03-01T11:40:58;17.13;;;8.65;;
45254;SDS011;30989;52.078;21.014;2023-03-01T11:52:05;18.33;;;10.00;;
45254;SDS011;30989;52.078;21.014;2023-03-01T12:11:03;14.40;;;7.05;;
45254;SDS011;30989;52.078;21.014;2023-03-01T12:22:33;14.77;;;7.38;;
45254;SDS011;30989;52.078;21.014;2023-03-01T12:43:13;14.88;;;7.55;;
45254;SDS011;30989;52.078;21.014;2023-03-01T12:49:08;16.00;;;8.05;;
45254;SDS011;30989;52.078;21.014;2023-03-01T12:51:38;15.20;;;8.35;;
45254;SDS011;30989;52.078;21.014;2023-03-01T12:54:10;15.55;;;7.25;;
45254;SDS011;30989;52.078;21.014;2023-03-01T12:56:40;16.10;;;7.80;;
45254;SDS011;30989;52.078;21.014;2023-03-01T13:04:40;14.88;;;7.45;;
45254;SDS011;30989;52.078;21.014;2023-03-01T13:15:32;14.55;;;7.72;;
45254;SDS011;30989;52.078;21.014;2023-03-01T13:23:13;18.52;;;8.38;;
45254;SDS011;30989;52.078;21.014;2023-03-01T13:35:57;13.38;;;7.57;;
45254;SDS011;30989;52.078;21.014;2023-03-01T13:41:11;16.75;;;8.30;;
45254;SDS011;30989;52.078;21.014;2023-03-01T13:43:38;16.90;;;9.57;;
45254;SDS011;30989;52.078;21.014;2023-03-01T13:46:11;17.95;;;8.15;;
45254;SDS011;30989;52.078;21.014;2023-03-01T13:48:42;17.42;;;8.00;;
45254;SDS011;30989;52.078;21.014;2023-03-01T13:51:11;18.13;;;8.30;;
45254;SDS011;30989;52.078;21.014;2023-03-01T13:53:40;22.90;;;10.30;;
45254;SDS011;30989;52.078;21.014;2023-03-01T13:56:13;18.50;;;8.40;;
45254;SDS011;30989;52.078;21.014;2023-03-01T14:03:47;18.23;;;8.90;;
45254;SDS011;30989;52.078;21.014;2023-03-01T14:06:14;13.02;;;7.05;;
45254;SDS011;30989;52.078;21.014;2023-03-01T14:08:45;20.33;;;9.80;;
45254;SDS011;30989;52.078;21.014;2023-03-01T14:16:48;16.33;;;8.63;;
45254;SDS011;30989;52.078;21.014;2023-03-01T14:19:17;20.60;;;9.32;;
45254;SDS011;30989;52.078;21.014;2023-03-01T14:22:02;18.85;;;8.65;;
45254;SDS011;30989;52.078;21.014;2023-03-01T14:24:44;20.92;;;9.45;;
45254;SDS011;30989;52.078;21.014;2023-03-01T14:27:14;17.30;;;8.75;;
45254;SDS011;30989;52.078;21.014;2023-03-01T14:29:41;27.00;;;10.35;;
45254;SDS011;30989;52.078;21.014;2023-03-01T14:32:20;20.67;;;8.57;;
45254;SDS011;30989;52.078;21.014;2023-03-01T14:34:49;21.05;;;8.43;;
45254;SDS011;30989;52.078;21.014;2023-03-01T14:39:56;19.63;;;8.68;;
45254;SDS011;30989;52.078;21.014;2023-03-01T14:42:23;20.90;;;9.52;;
45254;SDS011;30989;52.078;21.014;2023-03-01T14:44:52;19.20;;;9.60;;
45254;SDS011;30989;52.078;21.014;2023-03-01T14:47:28;18.15;;;9.10;;
45254;SDS011;30989;52.078;21.014;2023-03-01T14:50:03;18.08;;;8.57;;
45254;SDS011;30989;52.078;21.014;2023-03-01T14:52:36;19.40;;;9.13;;
45254;SDS011;30989;52.078;21.014;2023-03-01T14:55:05;20.10;;;9.52;;
45254;SDS011;30989;52.078;21.014;2023-03-01T14:57:42;22.00;;;9.07;;
45254;SDS011;30989;52.078;21.014;2023-03-01T15:00:10;24.77;;;10.10;;
45254;SDS011;30989;52.078;21.014;2023-03-01T15:02:42;20.45;;;8.70;;
45254;SDS011;30989;52.078;21.014;2023-03-01T15:05:08;22.35;;;9.77;;
45254;SDS011;30989;52.078;21.014;2023-03-01T15:07:42;20.02;;;9.45;;
45254;SDS011;30989;52.078;21.014;2023-03-01T15:10:22;24.70;;;10.27;;
45254;SDS011;30989;52.078;21.014;2023-03-01T15:12:49;27.88;;;10.32;;
45254;SDS011;30989;52.078;21.014;2023-03-01T15:15:31;21.27;;;9.95;;
45254;SDS011;30989;52.078;21.014;2023-03-01T15:17:59;19.33;;;9.77;;
45254;SDS011;30989;52.078;21.014;2023-03-01T15:20:32;21.90;;;9.30;;
45254;SDS011;30989;52.078;21.014;2023-03-01T15:23:01;23.63;;;10.35;;
45254;SDS011;30989;52.078;21.014;2023-03-01T15:25:28;25.45;;;9.40;;
45254;SDS011;30989;52.078;21.014;2023-03-01T15:27:56;22.75;;;10.25;;
45254;SDS011;30989;52.078;21.014;2023-03-01T15:35:45;25.20;;;10.30;;
45254;SDS011;30989;52.078;21.014;2023-03-01T15:38:31;27.92;;;11.57;;
45254;SDS011;30989;52.078;21.014;2023-03-01T15:41:24;24.67;;;10.40;;
45254;SDS011;30989;52.078;21.014;2023-03-01T15:43:56;24.15;;;10.48;;
45254;SDS011;30989;52.078;21.014;2023-03-01T15:46:33;24.65;;;10.65;;
45254;SDS011;30989;52.078;21.014;2023-03-01T15:49:18;30.33;;;11.75;;
45254;SDS011;30989;52.078;21.014;2023-03-01T15:51:55;32.35;;;12.35;;
45254;SDS011;30989;52.078;21.014;2023-03-01T15:54:22;27.20;;;10.65;;
45254;SDS011;30989;52.078;21.014;2023-03-01T15:56:50;28.73;;;11.77;;
45254;SDS011;30989;52.078;21.014;2023-03-01T15:59:16;26.50;;;12.57;;
45254;SDS011;30989;52.078;21.014;2023-03-01T16:01:42;30.52;;;12.27;;
45254;SDS011;30989;52.078;21.014;2023-03-01T16:04:12;29.73;;;11.98;;
45254;SDS011;30989;52.078;21.014;2023-03-01T16:06:53;25.30;;;10.98;;
45254;SDS011;30989;52.078;21.014;2023-03-01T16:09:20;35.90;;;14.23;;
45254;SDS011;30989;52.078;21.014;2023-03-01T16:11:47;31.05;;;10.77;;
45254;SDS011;30989;52.078;21.014;2023-03-01T16:14:13;24.73;;;11.40;;
45254;SDS011;30989;52.078;21.014;2023-03-01T16:16:39;26.20;;;10.38;;
45254;SDS011;30989;52.078;21.014;2023-03-01T16:19:05;35.88;;;12.13;;
45254;SDS011;30989;52.078;21.014;2023-03-01T16:21:30;25.48;;;10.35;;
45254;SDS011;30989;52.078;21.014;2023-03-01T16:23:56;28.27;;;11.90;;
45254;SDS011;30989;52.078;21.014;2023-03-01T16:26:21;25.60;;;11.10;;
45254;SDS011;30989;52.078;21.014;2023-03-01T16:28:47;27.48;;;12.00;;
45254;SDS011;30989;52.078;21.014;2023-03-01T16:31:16;30.33;;;10.80;;
45254;SDS011;30989;52.078;21.014;2023-03-01T16:33:43;32.58;;;11.52;;
45254;SDS011;30989;52.078;21.014;2023-03-01T16:36:14;21.70;;;10.55;;
45254;SDS011;30989;52.078;21.014;2023-03-01T16:38:42;25.48;;;12.02;;
45254;SDS011;30989;52.078;21.014;2023-03-01T16:41:14;35.33;;;12.30;;
45254;SDS011;30989;52.078;21.014;2023-03-01T16:43:42;28.70;;;12.55;;